sensor_id;sensor_type;location;lat;lon;timestamp;pressure;altitude;pressure_sealevel;temperature;humidity
59055;BME280;44845;51.444;7.460;2024-01-06T00:01:46;98365.91;;;7.80;90.23
59055;BME280;44845;51.444;7.460;2024-01-06T00:04:11;98362.47;;;7.77;89.94
59055;BME280;44845;51.444;7.460;2024-01-06T00:06:36;98374.72;;;7.75;90.51
59055;BME280;44845;51.444;7.460;2024-01-06T00:09:02;98370.47;;;7.70;90.40
59055;BME280;44845;51.444;7.460;2024-01-06T00:11:27;98371.22;;;7.76;90.47
59055;BME280;44845;51.444;7.460;2024-01-06T00:13:52;98374.75;;;7.72;90.57
59055;BME280;44845;51.444;7.460;2024-01-06T00:16:18;98379.09;;;7.73;90.65
59055;BME280;44845;51.444;7.460;2024-01-06T00:18:44;98375.66;;;7.71;90.63
59055;BME280;44845;51.444;7.460;2024-01-06T00:21:10;98386.88;;;7.76;90.27
59055;BME280;44845;51.444;7.460;2024-01-06T00:23:35;98386.88;;;7.76;90.43
59055;BME280;44845;51.444;7.460;2024-01-06T00:26:01;98388.69;;;7.73;90.73
59055;BME280;44845;51.444;7.460;2024-01-06T00:28:27;98393.84;;;7.74;90.45
59055;BME280;44845;51.444;7.460;2024-01-06T00:30:52;98392.09;;;7.76;90.49
59055;BME280;44845;51.444;7.460;2024-01-06T00:33:18;98394.63;;;7.81;90.34
59055;BME280;44845;51.444;7.460;2024-01-06T00:35:43;98394.66;;;7.78;90.67
59055;BME280;44845;51.444;7.460;2024-01-06T00:38:09;98393.81;;;7.77;90.76
59055;BME280;44845;51.444;7.460;2024-01-06T00:40:34;98399.94;;;7.75;90.40
59055;BME280;44845;51.444;7.460;2024-01-06T00:42:59;98402.47;;;7.80;90.52
59055;BME280;44845;51.444;7.460;2024-01-06T00:45:25;98399.94;;;7.76;90.52
59055;BME280;44845;51.444;7.460;2024-01-06T00:47:50;98406.91;;;7.76;90.72
59055;BME280;44845;51.444;7.460;2024-01-06T00:50:16;98410.28;;;7.81;90.66
59055;BME280;44845;51.444;7.460;2024-01-06T00:52:43;98400.66;;;7.82;90.44
59055;BME280;44845;51.444;7.460;2024-01-06T00:55:08;98397.38;;;7.73;90.52
59055;BME280;44845;51.444;7.460;2024-01-06T00:57:34;98405.97;;;7.79;90.52
59055;BME280;44845;51.444;7.460;2024-01-06T00:59:59;98406.81;;;7.81;90.59
59055;BME280;44845;51.444;7.460;2024-01-06T01:02:25;98407.81;;;7.73;90.82
59055;BME280;44845;51.444;7.460;2024-01-06T01:04:50;98407.75;;;7.76;89.93
59055;BME280;44845;51.444;7.460;2024-01-06T01:07:15;98407.63;;;7.83;90.12
59055;BME280;44845;51.444;7.460;2024-01-06T01:09:43;98403.50;;;7.71;90.20
59055;BME280;44845;51.444;7.460;2024-01-06T01:12:10;98411.22;;;7.77;90.41
59055;BME280;44845;51.444;7.460;2024-01-06T01:14:36;98407.63;;;7.83;90.23
59055;BME280;44845;51.444;7.460;2024-01-06T01:17:01;98409.50;;;7.74;90.24
59055;BME280;44845;51.444;7.460;2024-01-06T01:19:26;98417.25;;;7.81;89.95
59055;BME280;44845;51.444;7.460;2024-01-06T01:21:52;98413.72;;;7.82;90.13
59055;BME280;44845;51.444;7.460;2024-01-06T01:24:21;98416.47;;;7.75;90.28
59055;BME280;44845;51.444;7.460;2024-01-06T01:26:47;98419.13;;;7.74;90.62
59055;BME280;44845;51.444;7.460;2024-01-06T01:29:12;98426.09;;;7.73;90.77
59055;BME280;44845;51.444;7.460;2024-01-06T01:31:37;98429.66;;;7.68;91.06
59055;BME280;44845;51.444;7.460;2024-01-06T01:34:03;98423.34;;;7.80;90.66
59055;BME280;44845;51.444;7.460;2024-01-06T01:36:28;98430.38;;;7.76;90.69
59055;BME280;44845;51.444;7.460;2024-01-06T01:38:53;98432.19;;;7.72;90.89
59055;BME280;44845;51.444;7.460;2024-01-06T01:41:19;98440.84;;;7.74;90.66
59055;BME280;44845;51.444;7.460;2024-01-06T01:43:45;98441.75;;;7.73;90.80
59055;BME280;44845;51.444;7.460;2024-01-06T01:46:11;98440.72;;;7.81;90.83
59055;BME280;44845;51.444;7.460;2024-01-06T01:48:36;98444.31;;;7.76;90.97
59055;BME280;44845;51.444;7.460;2024-01-06T01:51:02;98446.00;;;7.77;90.88
59055;BME280;44845;51.444;7.460;2024-01-06T01:53:27;98456.34;;;7.84;90.58
59055;BME280;44845;51.444;7.460;2024-01-06T01:55:53;98453.97;;;7.70;91.09
59055;BME280;44845;51.444;7.460;2024-01-06T01:58:19;98451.28;;;7.74;90.78
59055;BME280;44845;51.444;7.460;2024-01-06T02:00:45;98453.88;;;7.74;91.05
59055;BME280;44845;51.444;7.460;2024-01-06T02:03:11;98453.81;;;7.79;91.01
59055;BME280;44845;51.444;7.460;2024-01-06T02:05:38;98455.56;;;7.77;91.07
59055;BME280;44845;51.444;7.460;2024-01-06T02:08:03;98457.47;;;7.69;91.65
59055;BME280;44845;51.444;7.460;2024-01-06T02:10:29;98457.44;;;7.70;91.63
59055;BME280;44845;51.444;7.460;2024-01-06T02:12:54;98455.66;;;7.74;91.03
59055;BME280;44845;51.444;7.460;2024-01-06T02:15:19;98460.06;;;7.70;91.36
59055;BME280;44845;51.444;7.460;2024-01-06T02:17:45;98461.63;;;7.81;90.69
59055;BME280;44845;51.444;7.460;2024-01-06T02:20:11;98462.66;;;7.70;91.06
59055;BME280;44845;51.444;7.460;2024-01-06T02:22:37;98457.44;;;7.70;91.15
59055;BME280;44845;51.444;7.460;2024-01-06T02:25:05;98465.19;;;7.75;91.10
59055;BME280;44845;51.444;7.460;2024-01-06T02:27:37;98466.94;;;7.74;90.98
59055;BME280;44845;51.444;7.460;2024-01-06T02:30:02;98466.00;;;7.77;90.95
59055;BME280;44845;51.444;7.460;2024-01-06T02:32:28;98473.84;;;7.79;90.57
59055;BME280;44845;51.444;7.460;2024-01-06T02:34:53;98470.44;;;7.73;91.24
59055;BME280;44845;51.444;7.460;2024-01-06T02:37:18;98474.84;;;7.71;90.60
59055;BME280;44845;51.444;7.460;2024-01-06T02:39:44;98477.50;;;7.68;90.58
59055;BME280;44845;51.444;7.460;2024-01-06T02:42:09;98481.81;;;7.71;90.29
59055;BME280;44845;51.444;7.460;2024-01-06T02:44:34;98477.53;;;7.65;90.77
59055;BME280;44845;51.444;7.460;2024-01-06T02:47:00;98482.72;;;7.68;89.34
59055;BME280;44845;51.444;7.460;2024-01-06T02:49:25;98494.94;;;7.66;90.20
59055;BME280;44845;51.444;7.460;2024-01-06T02:51:50;98492.28;;;7.68;90.08
59055;BME280;44845;51.444;7.460;2024-01-06T02:54:16;98492.34;;;7.64;89.75
59055;BME280;44845;51.444;7.460;2024-01-06T02:56:41;98494.03;;;7.69;89.66
59055;BME280;44845;51.444;7.460;2024-01-06T02:59:06;98499.25;;;7.67;89.45
59055;BME280;44845;51.444;7.460;2024-01-06T03:01:32;98494.88;;;7.69;89.85
59055;BME280;44845;51.444;7.460;2024-01-06T03:03:57;98503.59;;;7.68;89.26
59055;BME280;44845;51.444;7.460;2024-01-06T03:06:23;98501.84;;;7.67;89.80
59055;BME280;44845;51.444;7.460;2024-01-06T03:08:48;98508.94;;;7.62;89.56
59055;BME280;44845;51.444;7.460;2024-01-06T03:11:13;98513.28;;;7.61;89.91
59055;BME280;44845;51.444;7.460;2024-01-06T03:13:39;98516.81;;;7.57;89.62
59055;BME280;44845;51.444;7.460;2024-01-06T03:16:05;98516.88;;;7.52;89.65
59055;BME280;44845;51.444;7.460;2024-01-06T03:18:30;98517.63;;;7.61;90.37
59055;BME280;44845;51.444;7.460;2024-01-06T03:20:56;98520.25;;;7.61;90.03
59055;BME280;44845;51.444;7.460;2024-01-06T03:23:21;98524.47;;;7.68;90.37
59055;BME280;44845;51.444;7.460;2024-01-06T03:25:46;98525.50;;;7.59;90.31
59055;BME280;44845;51.444;7.460;2024-01-06T03:28:12;98521.91;;;7.66;90.18
59055;BME280;44845;51.444;7.460;2024-01-06T03:30:37;98528.94;;;7.61;90.20
59055;BME280;44845;51.444;7.460;2024-01-06T03:33:02;98529.81;;;7.62;90.30
59055;BME280;44845;51.444;7.460;2024-01-06T03:35:28;98535.03;;;7.62;90.49
59055;BME280;44845;51.444;7.460;2024-01-06T03:37:53;98536.78;;;7.60;90.23
59055;BME280;44845;51.444;7.460;2024-01-06T03:40:19;98539.47;;;7.55;90.70
59055;BME280;44845;51.444;7.460;2024-01-06T03:42:44;98537.63;;;7.60;90.19
59055;BME280;44845;51.444;7.460;2024-01-06T03:45:09;98544.59;;;7.60;91.13
59055;BME280;44845;51.444;7.460;2024-01-06T03:47:35;98545.47;;;7.62;90.70
59055;BME280;44845;51.444;7.460;2024-01-06T03:50:00;98553.28;;;7.62;90.54
59055;BME280;44845;51.444;7.460;2024-01-06T03:52:26;98552.50;;;7.57;90.95
59055;BME280;44845;51.444;7.460;2024-01-06T03:54:51;98553.22;;;7.65;91.11
59055;BME280;44845;51.444;7.460;2024-01-06T03:57:16;98555.13;;;7.55;90.13
59055;BME280;44845;51.444;7.460;2024-01-06T03:59:42;98558.44;;;7.65;89.92
59055;BME280;44845;51.444;7.460;2024-01-06T04:02:07;98567.16;;;7.64;90.32
59055;BME280;44845;51.444;7.460;2024-01-06T04:04:33;98564.75;;;7.51;90.51
59055;BME280;44845;51.444;7.460;2024-01-06T04:06:58;98561.31;;;7.48;91.05
59055;BME280;44845;51.444;7.460;2024-01-06T04:09:23;98564.63;;;7.58;91.45
59055;BME280;44845;51.444;7.460;2024-01-06T04:11:49;98562.88;;;7.60;91.42
59055;BME280;44845;51.444;7.460;2024-01-06T04:14:14;98568.59;;;7.25;90.46
59055;BME280;44845;51.444;7.460;2024-01-06T04:16:39;98565.16;;;7.23;90.57
59055;BME280;44845;51.444;7.460;2024-01-06T04:19:05;98570.22;;;6.72;90.85
59055;BME280;44845;51.444;7.460;2024-01-06T04:21:32;98569.88;;;6.96;91.15
59055;BME280;44845;51.444;7.460;2024-01-06T04:23:57;98571.53;;;7.03;90.79
59055;BME280;44845;51.444;7.460;2024-01-06T04:26:23;98579.53;;;6.89;91.35
59055;BME280;44845;51.444;7.460;2024-01-06T04:28:48;98579.50;;;6.91;91.16
59055;BME280;44845;51.444;7.460;2024-01-06T04:31:14;98577.69;;;6.99;91.17
59055;BME280;44845;51.444;7.460;2024-01-06T04:33:39;98580.63;;;6.72;90.92
59055;BME280;44845;51.444;7.460;2024-01-06T04:36:06;98576.00;;;6.95;90.95
59055;BME280;44845;51.444;7.460;2024-01-06T04:38:31;98590.09;;;6.80;90.66
59055;BME280;44845;51.444;7.460;2024-01-06T04:40:57;98582.91;;;6.96;89.91
59055;BME280;44845;51.444;7.460;2024-01-06T04:43:22;98588.84;;;7.09;90.74
59055;BME280;44845;51.444;7.460;2024-01-06T04:45:47;98589.75;;;7.06;90.08
59055;BME280;44845;51.444;7.460;2024-01-06T04:48:13;98593.28;;;7.02;90.33
59055;BME280;44845;51.444;7.460;2024-01-06T04:50:38;98589.88;;;6.97;89.67
59055;BME280;44845;51.444;7.460;2024-01-06T04:53:03;98596.19;;;6.77;87.99
59055;BME280;44845;51.444;7.460;2024-01-06T04:55:29;98603.88;;;6.90;88.91
59055;BME280;44845;51.444;7.460;2024-01-06T04:57:54;98610.91;;;6.81;88.67
59055;BME280;44845;51.444;7.460;2024-01-06T05:00:19;98608.59;;;6.58;89.09
59055;BME280;44845;51.444;7.460;2024-01-06T05:02:45;98614.56;;;6.68;89.83
59055;BME280;44845;51.444;7.460;2024-01-06T05:05:10;98613.59;;;6.75;89.17
59055;BME280;44845;51.444;7.460;2024-01-06T05:07:36;98617.47;;;6.41;88.62
59055;BME280;44845;51.444;7.460;2024-01-06T05:10:01;98630.06;;;6.77;89.05
59055;BME280;44845;51.444;7.460;2024-01-06T05:12:27;98625.59;;;6.89;89.78
59055;BME280;44845;51.444;7.460;2024-01-06T05:14:52;98621.19;;;6.94;89.84
59055;BME280;44845;51.444;7.460;2024-01-06T05:17:18;98624.63;;;6.96;89.63
59055;BME280;44845;51.444;7.460;2024-01-06T05:19:43;98629.75;;;7.04;88.66
59055;BME280;44845;51.444;7.460;2024-01-06T05:22:08;98629.78;;;7.02;88.71
59055;BME280;44845;51.444;7.460;2024-01-06T05:24:33;98627.16;;;7.02;88.60
59055;BME280;44845;51.444;7.460;2024-01-06T05:26:59;98634.97;;;7.05;88.22
59055;BME280;44845;51.444;7.460;2024-01-06T05:29:24;98636.59;;;7.11;87.64
59055;BME280;44845;51.444;7.460;2024-01-06T05:31:51;98645.38;;;7.05;87.81
59055;BME280;44845;51.444;7.460;2024-01-06T05:34:16;98637.56;;;7.04;88.01
59055;BME280;44845;51.444;7.460;2024-01-06T05:36:42;98646.19;;;7.09;88.01
59055;BME280;44845;51.444;7.460;2024-01-06T05:39:07;98639.34;;;7.02;88.34
59055;BME280;44845;51.444;7.460;2024-01-06T05:41:39;98653.13;;;7.12;87.54
59055;BME280;44845;51.444;7.460;2024-01-06T05:44:05;98649.69;;;7.09;86.96
59055;BME280;44845;51.444;7.460;2024-01-06T05:46:30;98653.25;;;7.02;87.76
59055;BME280;44845;51.444;7.460;2024-01-06T05:48:55;98655.84;;;7.02;87.74
59055;BME280;44845;51.444;7.460;2024-01-06T05:51:21;98656.72;;;7.01;86.46
59055;BME280;44845;51.444;7.460;2024-01-06T05:53:47;98658.47;;;7.01;87.58
59055;BME280;44845;51.444;7.460;2024-01-06T05:56:22;98661.44;;;6.71;86.86
59055;BME280;44845;51.444;7.460;2024-01-06T05:58:48;98649.84;;;6.94;86.58
59055;BME280;44845;51.444;7.460;2024-01-06T06:01:14;98650.84;;;6.83;86.01
59055;BME280;44845;51.444;7.460;2024-01-06T06:03:39;98657.88;;;6.78;86.24
59055;BME280;44845;51.444;7.460;2024-01-06T06:06:04;98665.63;;;6.83;85.88
59055;BME280;44845;51.444;7.460;2024-01-06T06:08:30;98672.56;;;6.84;86.24
59055;BME280;44845;51.444;7.460;2024-01-06T06:10:56;98676.28;;;6.59;86.22
59055;BME280;44845;51.444;7.460;2024-01-06T06:13:30;98689.16;;;6.78;85.89
59055;BME280;44845;51.444;7.460;2024-01-06T06:15:55;98678.56;;;6.91;87.07
59055;BME280;44845;51.444;7.460;2024-01-06T06:18:21;98686.38;;;6.92;86.58
59055;BME280;44845;51.444;7.460;2024-01-06T06:20:46;98686.31;;;6.97;86.52
59055;BME280;44845;51.444;7.460;2024-01-06T06:23:12;98694.19;;;6.91;87.65
59055;BME280;44845;51.444;7.460;2024-01-06T06:25:38;98695.09;;;6.90;87.40
59055;BME280;44845;51.444;7.460;2024-01-06T06:28:04;98700.47;;;6.74;86.07
59055;BME280;44845;51.444;7.460;2024-01-06T06:30:29;98703.84;;;6.84;85.58
59055;BME280;44845;51.444;7.460;2024-01-06T06:32:55;98697.69;;;6.90;86.89
59055;BME280;44845;51.444;7.460;2024-01-06T06:35:20;98706.44;;;6.85;87.95
59055;BME280;44845;51.444;7.460;2024-01-06T06:37:45;98707.28;;;6.87;86.00
59055;BME280;44845;51.444;7.460;2024-01-06T06:40:11;98723.78;;;6.86;87.61
59055;BME280;44845;51.444;7.460;2024-01-06T06:42:38;98723.78;;;6.86;87.18
59055;BME280;44845;51.444;7.460;2024-01-06T06:45:03;98728.09;;;6.89;87.65
59055;BME280;44845;51.444;7.460;2024-01-06T06:47:29;98740.28;;;6.89;87.97
59055;BME280;44845;51.444;7.460;2024-01-06T06:49:54;98739.44;;;6.86;87.62
59055;BME280;44845;51.444;7.460;2024-01-06T06:52:19;98739.41;;;6.90;87.38
59055;BME280;44845;51.444;7.460;2024-01-06T06:54:45;98741.22;;;6.81;87.12
59055;BME280;44845;51.444;7.460;2024-01-06T06:57:10;98749.94;;;6.80;87.82
59055;BME280;44845;51.444;7.460;2024-01-06T06:59:36;98751.59;;;6.87;87.41
59055;BME280;44845;51.444;7.460;2024-01-06T07:02:02;98754.28;;;6.76;87.50
59055;BME280;44845;51.444;7.460;2024-01-06T07:04:27;98761.13;;;6.89;86.82
59055;BME280;44845;51.444;7.460;2024-01-06T07:06:53;98767.31;;;6.78;87.13
59055;BME280;44845;51.444;7.460;2024-01-06T07:09:18;98768.94;;;6.89;87.32
59055;BME280;44845;51.444;7.460;2024-01-06T07:11:44;98765.56;;;6.80;86.45
59055;BME280;44845;51.444;7.460;2024-01-06T07:14:10;98768.09;;;6.88;87.43
59055;BME280;44845;51.444;7.460;2024-01-06T07:16:35;98770.69;;;6.86;86.76
59055;BME280;44845;51.444;7.460;2024-01-06T07:19:01;98774.34;;;6.70;87.18
59055;BME280;44845;51.444;7.460;2024-01-06T07:21:26;98784.69;;;6.76;86.64
59055;BME280;44845;51.444;7.460;2024-01-06T07:23:51;98788.22;;;6.72;84.79
59055;BME280;44845;51.444;7.460;2024-01-06T07:26:17;98790.03;;;6.63;85.37
59055;BME280;44845;51.444;7.460;2024-01-06T07:28:42;98799.47;;;6.77;85.02
59055;BME280;44845;51.444;7.460;2024-01-06T07:31:08;98805.59;;;6.73;86.41
59055;BME280;44845;51.444;7.460;2024-01-06T07:33:33;98811.81;;;6.51;84.43
59055;BME280;44845;51.444;7.460;2024-01-06T07:35:58;98810.00;;;6.63;83.95
59055;BME280;44845;51.444;7.460;2024-01-06T07:38:24;98815.25;;;6.60;85.57
59055;BME280;44845;51.444;7.460;2024-01-06T07:43:44;98815.44;;;6.35;84.39
59055;BME280;44845;51.444;7.460;2024-01-06T07:46:19;98825.03;;;6.25;85.23
59055;BME280;44845;51.444;7.460;2024-01-06T07:48:50;98831.91;;;6.38;84.74
59055;BME280;44845;51.444;7.460;2024-01-06T07:51:25;98835.38;;;6.40;85.36
59055;BME280;44845;51.444;7.460;2024-01-06T07:53:50;98838.81;;;6.46;86.34
59055;BME280;44845;51.444;7.460;2024-01-06T07:56:21;98844.00;;;6.46;84.72
59055;BME280;44845;51.444;7.460;2024-01-06T07:58:50;98845.78;;;6.40;84.04
59055;BME280;44845;51.444;7.460;2024-01-06T08:01:21;98854.41;;;6.49;85.09
59055;BME280;44845;51.444;7.460;2024-01-06T08:03:47;98856.09;;;6.56;84.22
59055;BME280;44845;51.444;7.460;2024-01-06T08:06:30;98854.41;;;6.49;83.41
59055;BME280;44845;51.444;7.460;2024-01-06T08:09:10;98857.03;;;6.46;85.67
59055;BME280;44845;51.444;7.460;2024-01-06T08:11:39;98856.13;;;6.50;84.84
59055;BME280;44845;51.444;7.460;2024-01-06T08:14:04;98863.94;;;6.50;84.79
59055;BME280;44845;51.444;7.460;2024-01-06T08:16:33;98867.41;;;6.52;85.93
59055;BME280;44845;51.444;7.460;2024-01-06T08:19:02;98874.28;;;6.62;84.27
59055;BME280;44845;51.444;7.460;2024-01-06T08:21:54;98885.63;;;6.52;85.32
59055;BME280;44845;51.444;7.460;2024-01-06T08:24:42;98893.44;;;6.55;85.70
59055;BME280;44845;51.444;7.460;2024-01-06T08:27:28;98905.63;;;6.53;84.28
59055;BME280;44845;51.444;7.460;2024-01-06T08:29:53;98902.97;;;6.59;85.79
59055;BME280;44845;51.444;7.460;2024-01-06T08:32:19;98906.66;;;6.24;84.59
59055;BME280;44845;51.444;7.460;2024-01-06T08:34:44;98906.59;;;6.33;84.17
59055;BME280;44845;51.444;7.460;2024-01-06T08:37:09;98908.28;;;6.40;85.06
59055;BME280;44845;51.444;7.460;2024-01-06T08:39:35;98913.44;;;6.50;85.52
59055;BME280;44845;51.444;7.460;2024-01-06T08:42:00;98916.28;;;5.95;85.32
59055;BME280;44845;51.444;7.460;2024-01-06T08:44:25;98920.66;;;5.88;86.29
59055;BME280;44845;51.444;7.460;2024-01-06T08:46:53;98927.53;;;6.10;87.02
59055;BME280;44845;51.444;7.460;2024-01-06T08:49:18;98935.38;;;6.02;86.93
59055;BME280;44845;51.444;7.460;2024-01-06T08:51:44;98941.47;;;5.88;87.12
59055;BME280;44845;51.444;7.460;2024-01-06T08:54:09;98945.78;;;5.99;86.83
59055;BME280;44845;51.444;7.460;2024-01-06T08:56:34;98946.63;;;6.01;86.13
59055;BME280;44845;51.444;7.460;2024-01-06T08:59:00;98947.53;;;5.92;86.04
59055;BME280;44845;51.444;7.460;2024-01-06T09:01:25;98960.53;;;6.09;87.14
59055;BME280;44845;51.444;7.460;2024-01-06T09:03:50;98964.03;;;5.92;85.95
59055;BME280;44845;51.444;7.460;2024-01-06T09:06:16;98957.97;;;5.87;85.54
59055;BME280;44845;51.444;7.460;2024-01-06T09:08:41;98964.09;;;5.51;86.29
59055;BME280;44845;51.444;7.460;2024-01-06T09:11:06;98963.25;;;5.41;87.08
59055;BME280;44845;51.444;7.460;2024-01-06T09:13:32;98963.19;;;5.74;86.63
59055;BME280;44845;51.444;7.460;2024-01-06T09:15:58;98974.50;;;5.67;86.53
59055;BME280;44845;51.444;7.460;2024-01-06T09:18:25;98975.34;;;5.63;86.04
59055;BME280;44845;51.444;7.460;2024-01-06T09:20:50;98983.16;;;5.69;85.36
59055;BME280;44845;51.444;7.460;2024-01-06T09:23:16;98981.38;;;5.84;85.00
59055;BME280;44845;51.444;7.460;2024-01-06T09:25:41;98991.78;;;5.81;84.84
59055;BME280;44845;51.444;7.460;2024-01-06T09:28:06;98990.94;;;5.77;84.26
59055;BME280;44845;51.444;7.460;2024-01-06T09:30:32;98991.78;;;5.78;84.95
59055;BME280;44845;51.444;7.460;2024-01-06T09:32:57;98997.00;;;5.84;85.09
59055;BME280;44845;51.444;7.460;2024-01-06T09:35:23;99002.22;;;5.81;85.63
59055;BME280;44845;51.444;7.460;2024-01-06T09:37:48;99005.69;;;5.73;86.24
59055;BME280;44845;51.444;7.460;2024-01-06T09:40:20;99012.56;;;6.06;90.83
59055;BME280;44845;51.444;7.460;2024-01-06T09:42:46;99016.06;;;6.11;85.04
59055;BME280;44845;51.444;7.460;2024-01-06T09:45:11;99018.69;;;5.81;82.25
59055;BME280;44845;51.444;7.460;2024-01-06T09:47:38;99008.28;;;5.69;82.61
59055;BME280;44845;51.444;7.460;2024-01-06T09:50:06;99017.84;;;5.59;82.94
59055;BME280;44845;51.444;7.460;2024-01-06T09:52:39;99032.59;;;5.17;84.71
59055;BME280;44845;51.444;7.460;2024-01-06T09:55:10;99034.31;;;5.26;84.70
59055;BME280;44845;51.444;7.460;2024-01-06T09:57:36;99035.16;;;5.06;85.36
59055;BME280;44845;51.444;7.460;2024-01-06T10:00:02;99039.53;;;5.28;85.94
59055;BME280;44845;51.444;7.460;2024-01-06T10:02:27;99029.97;;;5.46;85.33
59055;BME280;44845;51.444;7.460;2024-01-06T10:04:52;99040.41;;;5.57;84.97
59055;BME280;44845;51.444;7.460;2024-01-06T10:07:18;99044.72;;;5.67;83.96
59055;BME280;44845;51.444;7.460;2024-01-06T10:09:43;99051.69;;;5.31;85.50
59055;BME280;44845;51.444;7.460;2024-01-06T10:12:09;99057.72;;;5.23;84.89
59055;BME280;44845;51.444;7.460;2024-01-06T10:14:35;99056.00;;;5.44;84.66
59055;BME280;44845;51.444;7.460;2024-01-06T10:17:01;99062.03;;;5.07;85.64
59055;BME280;44845;51.444;7.460;2024-01-06T10:19:26;99070.59;;;4.75;87.03
59055;BME280;44845;51.444;7.460;2024-01-06T10:21:51;99062.03;;;5.09;86.04
59055;BME280;44845;51.444;7.460;2024-01-06T10:24:17;99062.06;;;5.29;86.83
59055;BME280;44845;51.444;7.460;2024-01-06T10:26:44;99065.53;;;5.44;86.87
59055;BME280;44845;51.444;7.460;2024-01-06T10:29:10;99056.00;;;5.38;85.77
59055;BME280;44845;51.444;7.460;2024-01-06T10:31:36;99059.47;;;5.46;85.44
59055;BME280;44845;51.444;7.460;2024-01-06T10:34:02;99059.47;;;5.56;86.15
59055;BME280;44845;51.444;7.460;2024-01-06T10:36:28;99068.16;;;5.45;85.50
59055;BME280;44845;51.444;7.460;2024-01-06T10:38:54;99057.75;;;5.67;86.54
59055;BME280;44845;51.444;7.460;2024-01-06T10:41:20;99062.94;;;5.58;84.72
59055;BME280;44845;51.444;7.460;2024-01-06T10:43:47;99067.28;;;5.70;84.57
59055;BME280;44845;51.444;7.460;2024-01-06T10:46:13;99069.88;;;5.49;84.08
59055;BME280;44845;51.444;7.460;2024-01-06T10:48:41;99073.34;;;5.47;84.51
59055;BME280;44845;51.444;7.460;2024-01-06T10:51:11;99072.47;;;5.62;84.47
59055;BME280;44845;51.444;7.460;2024-01-06T10:53:37;99073.34;;;5.70;84.81
59055;BME280;44845;51.444;7.460;2024-01-06T10:56:05;99074.22;;;5.74;84.88
59055;BME280;44845;51.444;7.460;2024-01-06T10:58:32;99077.66;;;5.56;84.18
59055;BME280;44845;51.444;7.460;2024-01-06T11:00:59;99078.56;;;5.55;84.37
59055;BME280;44845;51.444;7.460;2024-01-06T11:03:26;99075.06;;;5.51;85.70
59055;BME280;44845;51.444;7.460;2024-01-06T11:05:52;99077.66;;;5.68;85.30
59055;BME280;44845;51.444;7.460;2024-01-06T11:08:18;99079.41;;;5.71;85.78
59055;BME280;44845;51.444;7.460;2024-01-06T11:10:44;99069.03;;;5.72;84.85
59055;BME280;44845;51.444;7.460;2024-01-06T11:13:12;99084.63;;;5.38;83.58
59055;BME280;44845;51.444;7.460;2024-01-06T11:15:41;99075.06;;;5.56;83.69
59055;BME280;44845;51.444;7.460;2024-01-06T11:18:07;99072.47;;;5.73;83.35
59055;BME280;44845;51.444;7.460;2024-01-06T11:20:32;99066.41;;;5.38;83.05
59055;BME280;44845;51.444;7.460;2024-01-06T11:23:18;99062.94;;;5.61;82.82
59055;BME280;44845;51.444;7.460;2024-01-06T11:25:45;99075.09;;;5.45;84.04
59055;BME280;44845;51.444;7.460;2024-01-06T11:28:11;99075.09;;;5.43;83.77
59055;BME280;44845;51.444;7.460;2024-01-06T11:30:38;99068.13;;;5.33;83.40
59055;BME280;44845;51.444;7.460;2024-01-06T11:33:04;99070.72;;;5.31;84.40
59055;BME280;44845;51.444;7.460;2024-01-06T11:35:30;99073.34;;;5.47;84.41
59055;BME280;44845;51.444;7.460;2024-01-06T11:37:57;99076.75;;;5.14;85.40
59055;BME280;44845;51.444;7.460;2024-01-06T11:40:36;99077.66;;;5.32;84.56
59055;BME280;44845;51.444;7.460;2024-01-06T11:43:09;99088.03;;;5.15;85.16
59055;BME280;44845;51.444;7.460;2024-01-06T11:45:38;99086.28;;;4.98;86.36
59055;BME280;44845;51.444;7.460;2024-01-06T11:48:06;99089.78;;;5.17;85.89
59055;BME280;44845;51.444;7.460;2024-01-06T11:50:37;99086.28;;;5.12;85.26
59055;BME280;44845;51.444;7.460;2024-01-06T11:53:03;99086.28;;;5.14;84.91
59055;BME280;44845;51.444;7.460;2024-01-06T11:55:30;99088.88;;;5.04;85.45
59055;BME280;44845;51.444;7.460;2024-01-06T11:58:00;99090.66;;;5.27;84.64
59055;BME280;44845;51.444;7.460;2024-01-06T12:00:29;99091.47;;;5.09;84.67
59055;BME280;44845;51.444;7.460;2024-01-06T12:02:59;99085.47;;;5.34;85.51
59055;BME280;44845;51.444;7.460;2024-01-06T12:05:25;99087.22;;;5.38;85.44
59055;BME280;44845;51.444;7.460;2024-01-06T12:07:58;99082.88;;;5.45;84.12
59055;BME280;44845;51.444;7.460;2024-01-06T12:10:27;99088.97;;;5.45;84.96
59055;BME280;44845;51.444;7.460;2024-01-06T12:13:01;99085.47;;;5.56;84.64
59055;BME280;44845;51.444;7.460;2024-01-06T12:15:31;99084.63;;;5.68;85.25
59055;BME280;44845;51.444;7.460;2024-01-06T12:17:57;99088.09;;;5.59;85.22
59055;BME280;44845;51.444;7.460;2024-01-06T12:20:24;99092.44;;;5.72;83.83
59055;BME280;44845;51.444;7.460;2024-01-06T12:22:53;99097.63;;;5.44;83.32
59055;BME280;44845;51.444;7.460;2024-01-06T12:25:24;99087.22;;;5.43;83.83
59055;BME280;44845;51.444;7.460;2024-01-06T12:27:52;99090.69;;;5.52;85.39
59055;BME280;44845;51.444;7.460;2024-01-06T12:30:21;99093.28;;;5.46;84.84
59055;BME280;44845;51.444;7.460;2024-01-06T12:32:47;99094.13;;;5.26;85.14
59055;BME280;44845;51.444;7.460;2024-01-06T12:35:14;99098.44;;;5.20;85.84
59055;BME280;44845;51.444;7.460;2024-01-06T12:37:41;99096.59;;;4.76;87.29
59055;BME280;44845;51.444;7.460;2024-01-06T12:40:09;99098.31;;;4.74;86.98
59055;BME280;44845;51.444;7.460;2024-01-06T12:42:34;99096.69;;;5.07;87.10
59055;BME280;44845;51.444;7.460;2024-01-06T12:45:00;99102.72;;;5.06;86.57
59055;BME280;44845;51.444;7.460;2024-01-06T12:47:25;99107.97;;;5.13;86.06
59055;BME280;44845;51.444;7.460;2024-01-06T12:49:51;99109.63;;;4.96;85.70
59055;BME280;44845;51.444;7.460;2024-01-06T12:52:16;99116.63;;;5.12;85.08
59055;BME280;44845;51.444;7.460;2024-01-06T12:54:41;99115.72;;;5.02;85.33
59055;BME280;44845;51.444;7.460;2024-01-06T12:57:08;99126.16;;;5.14;86.59
59055;BME280;44845;51.444;7.460;2024-01-06T12:59:33;99125.22;;;4.92;85.08
59055;BME280;44845;51.444;7.460;2024-01-06T13:01:59;99127.91;;;5.25;85.72
59055;BME280;44845;51.444;7.460;2024-01-06T13:04:24;99124.44;;;5.24;85.17
59055;BME280;44845;51.444;7.460;2024-01-06T13:06:49;99133.09;;;5.22;84.18
59055;BME280;44845;51.444;7.460;2024-01-06T13:09:15;99132.22;;;5.09;84.57